createdAt,value
2022-12-03T00:02:19.180Z,33.47
2022-12-03T00:04:46.713Z,44.92
2022-12-03T00:07:14.237Z,46.90
2022-12-03T00:09:41.735Z,37.40
2022-12-03T00:12:09.371Z,33.63
2022-12-03T00:14:41.244Z,30.08
2022-12-03T00:17:11.748Z,30.10
2022-12-03T00:19:39.236Z,32.65
2022-12-03T00:22:06.749Z,32.97
2022-12-03T00:24:34.496Z,31.48
2022-12-03T00:27:01.933Z,30.30
2022-12-03T00:29:29.322Z,33.08
2022-12-03T00:31:56.776Z,31.05
2022-12-03T00:34:24.132Z,30.50
2022-12-03T00:36:51.750Z,32.40
2022-12-03T00:39:19.096Z,30.67
2022-12-03T00:41:46.631Z,28.30
2022-12-03T00:44:14.008Z,30.48
2022-12-03T00:46:41.530Z,34.90
2022-12-03T00:49:09.080Z,34.05
2022-12-03T00:51:36.637Z,33.80
2022-12-03T00:54:05.001Z,34.88
2022-12-03T00:56:32.408Z,32.60
2022-12-03T00:58:59.786Z,34.10
2022-12-03T01:01:27.337Z,35.38
2022-12-03T01:03:54.748Z,38.35
2022-12-03T01:06:22.214Z,34.33
2022-12-03T01:08:49.613Z,36.50
2022-12-03T01:11:35.990Z,37.40
2022-12-03T01:14:03.436Z,35.45
2022-12-03T01:16:30.849Z,34.10
2022-12-03T01:18:58.359Z,38.30
2022-12-03T01:21:25.812Z,36.40
2022-12-03T01:23:53.264Z,44.88
2022-12-03T01:26:20.838Z,40.58
2022-12-03T01:28:48.283Z,39.45
2022-12-03T01:31:34.298Z,36.78
2022-12-03T01:34:01.921Z,42.92
2022-12-03T01:36:29.362Z,37.50
2022-12-03T01:38:56.850Z,43.78
2022-12-03T01:41:25.826Z,40.75
2022-12-03T01:43:54.245Z,45.13
2022-12-03T01:46:26.368Z,39.70
2022-12-03T01:48:54.417Z,45.58
2022-12-03T01:51:21.839Z,43.70
2022-12-03T01:53:49.622Z,39.90
2022-12-03T01:56:18.123Z,37.78
2022-12-03T01:58:46.364Z,37.22
2022-12-03T02:01:15.379Z,40.95
2022-12-03T02:03:42.998Z,37.58
2022-12-03T02:06:17.766Z,38.97
2022-12-03T02:08:45.367Z,41.35
2022-12-03T02:11:30.914Z,40.92
2022-12-03T02:14:02.229Z,46.40
2022-12-03T02:16:30.343Z,40.90
2022-12-03T02:18:58.108Z,46.33
2022-12-03T02:21:30.989Z,42.80
2022-12-03T02:24:13.730Z,46.22
2022-12-03T02:26:41.245Z,45.72
2022-12-03T02:29:08.677Z,45.00
2022-12-03T02:31:51.339Z,53.33
2022-12-03T02:34:34.932Z,51.92
2022-12-03T02:37:02.990Z,45.78
2022-12-03T02:39:30.526Z,48.38
2022-12-03T02:42:16.640Z,48.13
2022-12-03T02:44:44.088Z,48.75
2022-12-03T02:47:11.716Z,43.53
2022-12-03T02:49:39.423Z,42.78
2022-12-03T02:52:07.039Z,45.25
2022-12-03T02:54:34.484Z,48.97
2022-12-03T02:57:02.026Z,48.15
2022-12-03T02:59:29.509Z,48.65
2022-12-03T03:01:57.114Z,44.70
2022-12-03T03:04:24.970Z,50.15
2022-12-03T03:06:52.822Z,43.90
2022-12-03T03:09:20.790Z,47.10
2022-12-03T03:11:48.273Z,47.85
2022-12-03T03:14:15.744Z,44.90
2022-12-03T03:16:43.302Z,50.05
2022-12-03T03:19:10.814Z,50.25
2022-12-03T03:21:38.417Z,48.72
2022-12-03T03:24:06.060Z,48.08
2022-12-03T03:26:33.578Z,50.85
2022-12-03T03:29:03.108Z,41.60
2022-12-03T03:31:30.815Z,49.58
2022-12-03T03:33:58.386Z,56.95
2022-12-03T03:36:26.243Z,51.33
2022-12-03T03:38:53.674Z,47.22
2022-12-03T03:41:21.702Z,54.47
2022-12-03T03:43:49.846Z,51.97
2022-12-03T03:46:19.459Z,53.20
2022-12-03T03:48:48.624Z,46.30
2022-12-03T03:51:17.421Z,52.92
2022-12-03T03:53:47.945Z,55.83
2022-12-03T03:56:15.933Z,53.78
2022-12-03T03:58:43.316Z,53.05
2022-12-03T04:01:12.420Z,62.03
2022-12-03T04:03:40.153Z,56.50
2022-12-03T04:06:07.978Z,57.55
2022-12-03T04:08:35.410Z,60.38
2022-12-03T04:11:21.806Z,59.53
2022-12-03T04:13:50.449Z,60.38
2022-12-03T04:16:17.876Z,59.03
2022-12-03T04:18:45.386Z,60.88
2022-12-03T04:21:35.906Z,58.45
2022-12-03T04:24:03.743Z,51.10
2022-12-03T04:26:49.802Z,59.63
2022-12-03T04:29:18.502Z,62.03
2022-12-03T04:32:04.599Z,58.40
2022-12-03T04:34:51.048Z,62.15
2022-12-03T04:37:18.769Z,58.92
2022-12-03T04:39:46.242Z,62.08
2022-12-03T04:42:13.654Z,66.00
2022-12-03T04:44:41.164Z,70.45
2022-12-03T04:47:13.805Z,62.22
2022-12-03T04:49:43.087Z,67.45
2022-12-03T04:52:11.397Z,71.18
2022-12-03T04:54:39.086Z,57.13
2022-12-03T04:57:07.341Z,56.72
2022-12-03T04:59:35.089Z,58.97
2022-12-03T05:02:02.637Z,59.25
2022-12-03T05:04:30.147Z,60.80
2022-12-03T05:06:57.837Z,64.28
2022-12-03T05:09:25.317Z,62.42
2022-12-03T05:11:52.783Z,61.13
2022-12-03T05:14:20.297Z,66.60
2022-12-03T05:16:48.009Z,70.60
2022-12-03T05:19:15.477Z,63.38
2022-12-03T05:21:42.974Z,65.55
2022-12-03T05:24:10.378Z,60.70
2022-12-03T05:26:37.894Z,66.60
2022-12-03T05:29:05.344Z,65.93
2022-12-03T05:31:32.853Z,62.08
2022-12-03T05:34:00.233Z,62.83
2022-12-03T05:36:27.941Z,64.35
2022-12-03T05:38:55.426Z,68.03
2022-12-03T05:41:41.821Z,63.45
2022-12-03T05:44:09.461Z,59.15
2022-12-03T05:46:37.042Z,57.40
2022-12-03T05:49:04.461Z,67.90
2022-12-03T05:51:31.906Z,67.43
2022-12-03T05:54:05.864Z,60.38
2022-12-03T05:56:33.320Z,55.28
2022-12-03T05:59:00.773Z,61.35
2022-12-03T06:01:28.323Z,64.78
2022-12-03T06:03:58.548Z,68.15
2022-12-03T06:06:25.984Z,57.75
2022-12-03T06:08:53.320Z,57.25
2022-12-03T06:11:20.771Z,58.75
2022-12-03T06:13:48.285Z,58.70
2022-12-03T06:16:15.844Z,55.33
2022-12-03T06:18:43.566Z,55.20
2022-12-03T06:21:11.062Z,49.90
2022-12-03T06:23:44.636Z,63.08
2022-12-03T06:26:15.243Z,62.83
2022-12-03T06:28:46.375Z,49.28
2022-12-03T06:31:16.827Z,52.03
2022-12-03T06:33:44.409Z,46.42
2022-12-03T06:36:11.881Z,62.72
2022-12-03T06:38:39.503Z,45.03
2022-12-03T06:41:06.885Z,52.13
2022-12-03T06:43:34.443Z,53.20
2022-12-03T06:46:02.185Z,63.30
2022-12-03T06:48:29.720Z,55.92
2022-12-03T06:50:57.177Z,48.35
2022-12-03T06:53:25.591Z,52.35
2022-12-03T06:55:53.049Z,45.00
2022-12-03T06:58:20.446Z,51.83
2022-12-03T07:00:48.020Z,44.22
2022-12-03T07:03:16.693Z,41.95
2022-12-03T07:05:44.266Z,40.33
2022-12-03T07:08:11.697Z,34.58
2022-12-03T07:10:39.194Z,54.80
2022-12-03T07:13:07.040Z,45.35
2022-12-03T07:15:37.216Z,42.22
2022-12-03T07:18:07.457Z,37.63
2022-12-03T07:20:35.216Z,39.70
2022-12-03T07:23:02.718Z,45.65
2022-12-03T07:25:30.259Z,50.15
2022-12-03T07:27:57.791Z,44.22
2022-12-03T07:30:25.773Z,44.45
2022-12-03T07:32:53.247Z,65.63
2022-12-03T07:35:20.933Z,89.20
2022-12-03T07:37:48.787Z,70.90
2022-12-03T07:40:16.335Z,61.30
2022-12-03T07:42:43.845Z,45.30
2022-12-03T07:45:11.553Z,38.75
2022-12-03T07:47:38.943Z,34.50
2022-12-03T07:50:06.664Z,34.13
2022-12-03T07:52:34.012Z,35.28
2022-12-03T07:55:06.144Z,31.83
2022-12-03T07:57:34.017Z,37.20
2022-12-03T08:00:01.437Z,32.45
2022-12-03T08:02:29.972Z,37.08
2022-12-03T08:04:57.496Z,32.92
2022-12-03T08:07:25.234Z,37.80
2022-12-03T08:09:52.813Z,48.90
2022-12-03T08:12:43.035Z,44.67
2022-12-03T08:15:18.018Z,36.42
2022-12-03T08:17:48.407Z,40.13
2022-12-03T08:20:20.297Z,41.78
2022-12-03T08:22:49.211Z,38.70
2022-12-03T08:25:34.933Z,33.55
2022-12-03T08:28:19.055Z,93.00
2022-12-03T08:31:12.484Z,48.05
2022-12-03T08:33:41.881Z,35.00
2022-12-03T08:36:24.736Z,37.45
2022-12-03T08:38:53.016Z,36.80
2022-12-03T08:41:40.867Z,30.23
2022-12-03T08:44:20.286Z,46.53
2022-12-03T08:46:50.664Z,35.03
2022-12-03T08:49:18.779Z,36.78
2022-12-03T08:51:46.190Z,35.75
2022-12-03T08:54:18.414Z,34.78
2022-12-03T08:56:45.861Z,32.17
2022-12-03T08:59:25.053Z,31.55
2022-12-03T09:01:53.852Z,34.17
2022-12-03T09:04:30.125Z,39.85
2022-12-03T09:06:58.292Z,33.30
2022-12-03T09:09:26.171Z,31.20
2022-12-03T09:11:54.016Z,29.25
2022-12-03T09:14:22.832Z,38.50
2022-12-03T09:16:56.744Z,32.28
2022-12-03T09:19:25.425Z,31.23
2022-12-03T09:21:53.368Z,31.85
2022-12-03T09:24:20.975Z,29.25
2022-12-03T09:26:48.413Z,31.50
2022-12-03T09:29:15.965Z,27.92
2022-12-03T09:31:43.538Z,29.95
2022-12-03T09:34:11.613Z,30.88
2022-12-03T09:36:39.120Z,27.55
2022-12-03T09:39:07.458Z,26.45
2022-12-03T09:41:34.889Z,26.90
2022-12-03T09:44:04.378Z,30.20
2022-12-03T09:46:32.257Z,29.60
2022-12-03T09:48:59.884Z,29.00
2022-12-03T09:51:30.855Z,31.30
2022-12-03T09:53:59.732Z,32.03
2022-12-03T09:56:27.202Z,35.88
2022-12-03T09:58:55.171Z,28.23
2022-12-03T10:01:22.992Z,37.25
2022-12-03T10:03:52.528Z,32.25
2022-12-03T10:06:24.149Z,28.98
2022-12-03T10:08:53.584Z,30.80
2022-12-03T10:11:22.347Z,30.13
2022-12-03T10:13:52.519Z,32.22
2022-12-03T10:16:21.017Z,34.58
2022-12-03T10:18:52.910Z,32.47
2022-12-03T10:21:20.377Z,39.58
2022-12-03T10:23:50.789Z,34.95
2022-12-03T10:26:34.566Z,38.15
2022-12-03T10:29:02.069Z,47.67
2022-12-03T10:31:36.772Z,64.75
2022-12-03T10:34:04.249Z,38.85
2022-12-03T10:36:31.766Z,36.97
2022-12-03T10:39:15.953Z,35.92
2022-12-03T10:41:44.345Z,53.03
2022-12-03T10:44:12.936Z,36.50
2022-12-03T10:46:40.595Z,43.55
2022-12-03T10:49:09.461Z,50.38
2022-12-03T10:51:38.149Z,53.97
2022-12-03T10:54:07.202Z,51.53
2022-12-03T10:56:34.677Z,41.22
2022-12-03T10:59:02.107Z,43.78
2022-12-03T11:01:29.646Z,42.95
2022-12-03T11:04:02.245Z,48.88
2022-12-03T11:06:32.027Z,37.10
2022-12-03T11:09:06.948Z,42.63
2022-12-03T11:11:36.356Z,42.13
2022-12-03T11:14:04.484Z,83.80
2022-12-03T11:16:52.188Z,129.07
2022-12-03T11:19:39.622Z,71.53
2022-12-03T11:22:07.149Z,39.05
2022-12-03T11:24:35.712Z,52.72
2022-12-03T11:27:10.083Z,45.55
2022-12-03T11:29:47.071Z,39.20
2022-12-03T11:32:34.788Z,36.72
2022-12-03T11:35:02.297Z,35.42
2022-12-03T11:37:29.780Z,38.85
2022-12-03T11:40:23.253Z,42.38
2022-12-03T11:42:50.819Z,43.72
2022-12-03T11:45:31.605Z,108.35
2022-12-03T11:47:59.051Z,129.80
2022-12-03T11:50:40.133Z,115.60
2022-12-03T11:53:14.280Z,60.28
2022-12-03T11:55:44.500Z,81.45
2022-12-03T11:58:25.211Z,96.72
2022-12-03T12:00:53.584Z,58.72
2022-12-03T12:03:29.534Z,78.75
2022-12-03T12:06:11.837Z,105.70
2022-12-03T12:08:40.751Z,67.05
2022-12-03T12:11:18.366Z,42.20
2022-12-03T12:13:45.802Z,75.50
2022-12-03T12:16:13.374Z,77.38
2022-12-03T12:19:03.908Z,52.13
2022-12-03T12:21:42.687Z,50.22
2022-12-03T12:24:29.183Z,49.95
2022-12-03T12:27:01.161Z,38.33
2022-12-03T12:29:28.887Z,43.90
2022-12-03T12:32:04.159Z,39.65
2022-12-03T12:37:01.252Z,45.60
2022-12-03T12:39:28.713Z,48.13
2022-12-03T12:41:56.274Z,47.67
2022-12-03T12:44:23.736Z,55.55
2022-12-03T12:46:52.803Z,63.45
2022-12-03T12:49:25.195Z,61.38
2022-12-03T12:51:53.902Z,46.78
2022-12-03T12:54:21.381Z,64.82
2022-12-03T12:56:50.460Z,56.17
2022-12-03T12:59:22.093Z,52.88
2022-12-03T13:01:50.441Z,47.40
2022-12-03T13:04:22.323Z,51.75
2022-12-03T13:06:51.425Z,45.83
2022-12-03T13:09:20.587Z,58.58
2022-12-03T13:11:52.846Z,50.08
2022-12-03T13:14:24.851Z,43.90
2022-12-03T13:16:53.858Z,50.58
2022-12-03T13:19:24.109Z,47.22
2022-12-03T13:21:53.617Z,50.80
2022-12-03T13:24:33.351Z,46.22
2022-12-03T13:27:06.697Z,41.67
2022-12-03T13:29:34.183Z,51.28
2022-12-03T13:32:12.167Z,54.25
2022-12-03T13:34:39.825Z,51.85
2022-12-03T13:37:13.103Z,48.97
2022-12-03T13:39:43.059Z,45.75
2022-12-03T13:42:32.044Z,45.47
2022-12-03T13:44:59.541Z,48.15
2022-12-03T13:47:27.045Z,56.30
2022-12-03T13:49:55.992Z,54.13
2022-12-03T13:52:25.330Z,42.55
2022-12-03T13:54:56.733Z,45.35
2022-12-03T13:57:24.317Z,54.67
2022-12-03T13:59:52.368Z,51.70
2022-12-03T14:02:20.271Z,46.00
2022-12-03T14:04:47.976Z,44.70
2022-12-03T14:07:15.427Z,44.90
2022-12-03T14:09:42.933Z,42.15
2022-12-03T14:12:30.323Z,38.67
2022-12-03T14:14:57.886Z,38.13
2022-12-03T14:17:25.362Z,43.03
2022-12-03T14:19:53.271Z,36.20
2022-12-03T14:22:23.616Z,39.97
2022-12-03T14:24:51.581Z,35.25
2022-12-03T14:27:19.377Z,37.20
2022-12-03T14:29:46.824Z,55.53
2022-12-03T14:32:14.260Z,37.42
2022-12-03T14:34:41.884Z,40.22
2022-12-03T14:37:09.341Z,38.72
2022-12-03T14:39:37.214Z,58.42
2022-12-03T14:42:13.596Z,59.90
2022-12-03T14:44:41.066Z,53.38
2022-12-03T14:47:08.713Z,49.47
2022-12-03T14:49:36.377Z,55.55
2022-12-03T14:52:04.094Z,45.28
2022-12-03T14:54:31.700Z,45.50
2022-12-03T14:56:59.094Z,40.03
2022-12-03T14:59:28.002Z,43.83
2022-12-03T15:01:56.100Z,46.22
2022-12-03T15:04:23.945Z,59.05
2022-12-03T15:06:51.707Z,52.22
2022-12-03T15:09:19.229Z,47.20
2022-12-03T15:11:46.859Z,55.78
2022-12-03T15:14:14.465Z,54.95
2022-12-03T15:16:42.264Z,75.45
2022-12-03T15:19:09.694Z,59.72
2022-12-03T15:21:37.252Z,58.95
2022-12-03T15:24:04.976Z,43.67
2022-12-03T15:26:32.438Z,48.10
2022-12-03T15:28:59.853Z,44.78
2022-12-03T15:31:27.450Z,44.75
2022-12-03T15:33:54.840Z,48.38
2022-12-03T15:36:22.483Z,42.13
2022-12-03T15:38:49.848Z,46.67
2022-12-03T15:41:29.690Z,41.70
2022-12-03T15:43:58.591Z,53.38
2022-12-03T15:46:27.715Z,74.88
2022-12-03T15:48:55.995Z,50.00
2022-12-03T15:51:23.641Z,63.22
2022-12-03T15:53:51.245Z,44.03
2022-12-03T15:56:18.788Z,41.03
2022-12-03T15:58:47.121Z,36.42
2022-12-03T16:01:14.761Z,39.05
2022-12-03T16:03:42.431Z,38.53
2022-12-03T16:06:09.918Z,49.97
2022-12-03T16:08:37.458Z,53.65
2022-12-03T16:11:05.898Z,42.72
2022-12-03T16:13:33.654Z,40.17
2022-12-03T16:16:01.195Z,49.17
2022-12-03T16:18:28.839Z,51.67
2022-12-03T16:20:56.230Z,43.83
2022-12-03T16:23:24.506Z,48.35
2022-12-03T16:25:52.018Z,51.83
2022-12-03T16:28:19.612Z,50.28
2022-12-03T16:30:47.077Z,46.42
2022-12-03T16:33:14.668Z,53.00
2022-12-03T16:35:42.233Z,58.58
2022-12-03T16:38:09.730Z,43.15
2022-12-03T16:40:37.137Z,47.58
2022-12-03T16:43:04.975Z,50.10
2022-12-03T16:45:44.562Z,46.97
2022-12-03T16:48:12.038Z,41.08
2022-12-03T16:50:40.062Z,42.30
2022-12-03T16:53:08.050Z,44.22
2022-12-03T16:55:35.456Z,41.67
2022-12-03T16:58:03.061Z,40.33
2022-12-03T17:00:30.458Z,38.42
2022-12-03T17:02:58.123Z,41.80
2022-12-03T17:05:25.628Z,39.63
2022-12-03T17:07:53.189Z,45.03
2022-12-03T17:10:20.717Z,40.33
2022-12-03T17:13:08.768Z,41.35
2022-12-03T17:15:36.209Z,41.78
2022-12-03T17:18:03.729Z,40.50
2022-12-03T17:20:31.983Z,43.47
2022-12-03T17:22:59.687Z,40.38
2022-12-03T17:25:27.563Z,40.50
2022-12-03T17:27:55.202Z,37.45
2022-12-03T17:30:22.693Z,41.63
2022-12-03T17:32:50.529Z,36.05
2022-12-03T17:35:18.434Z,43.72
2022-12-03T17:37:46.022Z,42.15
2022-12-03T17:40:14.350Z,47.47
2022-12-03T17:42:41.759Z,45.97
2022-12-03T17:45:09.832Z,42.10
2022-12-03T17:47:37.304Z,43.38
2022-12-03T17:50:04.903Z,42.38
2022-12-03T17:52:32.331Z,40.97
2022-12-03T17:55:11.859Z,41.80
2022-12-03T17:57:41.890Z,43.90
2022-12-03T18:00:10.111Z,41.22
2022-12-03T18:02:42.441Z,41.83
2022-12-03T18:05:10.121Z,39.80
2022-12-03T18:07:37.549Z,40.97
2022-12-03T18:10:05.330Z,38.42
2022-12-03T18:12:32.822Z,33.67
2022-12-03T18:15:00.312Z,39.60
2022-12-03T18:17:27.689Z,33.88
2022-12-03T18:19:55.335Z,30.48
2022-12-03T18:22:23.060Z,30.50
2022-12-03T18:24:51.968Z,34.03
2022-12-03T18:27:21.252Z,40.33
2022-12-03T18:29:48.913Z,36.38
2022-12-03T18:32:28.132Z,34.13
2022-12-03T18:34:56.152Z,33.05
2022-12-03T18:37:25.832Z,33.92
2022-12-03T18:39:53.607Z,35.88
2022-12-03T18:42:23.664Z,31.98
2022-12-03T18:44:52.054Z,34.47
2022-12-03T18:47:20.974Z,38.42
2022-12-03T18:49:48.450Z,36.95
2022-12-03T18:52:16.914Z,32.38
2022-12-03T18:54:44.572Z,30.15
2022-12-03T18:57:11.996Z,29.83
2022-12-03T18:59:39.725Z,25.88
2022-12-03T19:02:08.292Z,31.90
2022-12-03T19:04:35.867Z,31.60
2022-12-03T19:07:03.849Z,29.38
2022-12-03T19:09:31.403Z,30.45
2022-12-03T19:11:58.888Z,29.02
2022-12-03T19:14:26.329Z,28.75
2022-12-03T19:16:53.904Z,33.67
2022-12-03T19:19:21.461Z,30.52
2022-12-03T19:21:48.881Z,37.92
2022-12-03T19:24:24.236Z,27.45
2022-12-03T19:26:55.346Z,29.40
2022-12-03T19:29:23.476Z,31.10
2022-12-03T19:31:51.564Z,33.10
2022-12-03T19:34:19.214Z,32.75
2022-12-03T19:36:47.507Z,26.75
2022-12-03T19:39:15.046Z,29.10
2022-12-03T19:41:44.041Z,31.88
2022-12-03T19:44:14.290Z,29.98
2022-12-03T19:46:41.977Z,29.13
2022-12-03T19:49:09.638Z,31.70
2022-12-03T19:51:37.155Z,25.98
2022-12-03T19:54:05.698Z,26.45
2022-12-03T19:56:33.335Z,26.80
2022-12-03T19:59:00.850Z,28.80
2022-12-03T20:01:29.913Z,26.80
2022-12-03T20:03:58.479Z,32.03
2022-12-03T20:06:27.371Z,31.55
2022-12-03T20:08:58.855Z,27.77
2022-12-03T20:11:27.698Z,25.15
2022-12-03T20:13:56.426Z,29.10
2022-12-03T20:16:24.195Z,26.33
2022-12-03T20:18:52.198Z,28.48
2022-12-03T20:21:20.159Z,29.92
2022-12-03T20:23:47.809Z,32.67
2022-12-03T20:26:17.076Z,26.67
2022-12-03T20:28:44.874Z,27.95
2022-12-03T20:31:13.723Z,36.63
2022-12-03T20:33:42.873Z,28.48
2022-12-03T20:36:11.136Z,29.02
2022-12-03T20:38:38.840Z,31.38
2022-12-03T20:41:07.592Z,36.90
2022-12-03T20:43:35.375Z,34.95
2022-12-03T20:46:12.001Z,32.55
2022-12-03T20:48:39.942Z,31.95
2022-12-03T20:51:08.559Z,33.60
2022-12-03T20:53:36.405Z,32.58
2022-12-03T20:56:04.726Z,31.42
2022-12-03T20:58:32.512Z,25.17
2022-12-03T21:01:14.053Z,28.30
2022-12-03T21:03:43.343Z,27.58
2022-12-03T21:06:10.831Z,28.35
2022-12-03T21:08:42.699Z,27.10
2022-12-03T21:11:11.440Z,29.75
2022-12-03T21:13:41.611Z,26.98
2022-12-03T21:16:10.066Z,24.58
2022-12-03T21:18:37.726Z,27.00
2022-12-03T21:21:05.388Z,25.30
2022-12-03T21:23:35.438Z,30.73
2022-12-03T21:26:03.655Z,27.15
2022-12-03T21:28:31.228Z,24.85
2022-12-03T21:31:05.209Z,27.30
2022-12-03T21:33:33.236Z,23.08
2022-12-03T21:36:01.240Z,27.73
2022-12-03T21:38:29.345Z,28.25
2022-12-03T21:40:57.126Z,27.10
2022-12-03T21:43:25.179Z,24.15
2022-12-03T21:45:52.698Z,28.52
2022-12-03T21:48:20.523Z,25.65
2022-12-03T21:50:57.834Z,24.58
2022-12-03T21:53:25.307Z,25.17
2022-12-03T21:55:52.738Z,23.48
2022-12-03T21:58:20.197Z,26.00
2022-12-03T22:00:47.627Z,25.45
2022-12-03T22:03:15.291Z,25.40
2022-12-03T22:05:42.745Z,22.08
2022-12-03T22:08:10.297Z,23.42
2022-12-03T22:10:37.734Z,23.38
2022-12-03T22:13:05.314Z,27.38
2022-12-03T22:15:32.788Z,29.08
2022-12-03T22:18:00.277Z,28.98
2022-12-03T22:20:27.946Z,27.63
2022-12-03T22:22:55.418Z,23.05
2022-12-03T22:25:22.930Z,27.98
2022-12-03T22:27:50.296Z,25.02
2022-12-03T22:30:17.830Z,21.77
2022-12-03T22:32:45.366Z,27.45
2022-12-03T22:35:12.771Z,25.70
2022-12-03T22:37:40.136Z,23.02
2022-12-03T22:40:07.841Z,27.10
2022-12-03T22:42:35.328Z,24.67
2022-12-03T22:45:02.739Z,25.17
2022-12-03T22:47:30.105Z,27.02
2022-12-03T22:49:57.591Z,22.48
2022-12-03T22:52:25.093Z,26.48
2022-12-03T22:54:52.596Z,27.45
2022-12-03T22:57:19.961Z,26.15
2022-12-03T22:59:47.377Z,27.88
2022-12-03T23:02:14.813Z,22.45
2022-12-03T23:04:42.287Z,25.95
2022-12-03T23:07:09.715Z,33.03
2022-12-03T23:09:37.297Z,23.98
2022-12-03T23:12:04.796Z,26.08
2022-12-03T23:14:32.292Z,28.80
2022-12-03T23:16:59.703Z,26.10
2022-12-03T23:19:27.252Z,22.92
2022-12-03T23:21:54.708Z,26.35
2022-12-03T23:24:22.141Z,24.73
2022-12-03T23:26:49.625Z,24.80
2022-12-03T23:29:17.003Z,28.73
2022-12-03T23:31:44.552Z,26.50
2022-12-03T23:34:12.134Z,24.20
2022-12-03T23:36:39.692Z,24.75
2022-12-03T23:39:07.069Z,24.63
2022-12-03T23:41:34.545Z,25.85
2022-12-03T23:44:02.030Z,28.75
2022-12-03T23:46:29.722Z,32.55
2022-12-03T23:48:58.822Z,26.88
2022-12-03T23:51:26.483Z,30.42
2022-12-03T23:53:54.890Z,29.58
2022-12-03T23:56:24.609Z,29.30
2022-12-03T23:58:52.339Z,30.90
